Snover, Michigan
Current Conditions -  °F | °C
As of 1:15 PM on Sunday 25 Jan 2015 (Local Time) from KBAX Reporting Station
Broken Clouds Broken Clouds  
Wind Chill: 10°   Ceiling: 2400
Heat Index: 21°   Visibility: 10mi
Dew Point: 12°   Wind: 9mph
Humidity: 69%   Direction: 60°ENE
Pressure: 29.97"   Gusts: 17mph
Location:  43.46°N, 82.97°W
Report Text: KBAX 251815Z AUTO 06008G15KT 10SM BKN024 M06/M11 A2997 RMK AO2 T10621111
Loading
Personal Weather Stations






























Interactive Weather Map New forecast layout! Learn more

10-Day Weather Forecast

Advertisements
Track Severe Weather on mobile